Meeteetse, WY (82433)

4:37 AM MST on February 11, 2016 (GMT -0700)
APRSWXNET | | Change Station
CLOSE
Current Station
Personal Weather Station
Location: Meeteetse, WY
Elevation: 5748 ft
Nearby Weather Stations

Elev 5748 ft 44.16 °N, 108.87 °W | Updated 27 minutes ago

Partly Cloudy
Partly Cloudy
46 °F
Feels Like 46 °F
N
1
Wind Variable Wind from SW
Gusts 4.0 mph

Today
High -- | Low -- °F
--% Chance of Precip.
Yesterday
High -- | Low -- °F
Precip. -- in
Pressure 30.07 in
Visibility 10.0 miles
Clouds Clear
Windchill 46 °F
Dew Point 21 °F
Humidity 37%
Rainfall in
Snow Depth Not available.
7:21 AM 5:38 PM
Waxing Crescent, 11% visible
METAR KCOD 111135Z AUTO 30003KT 10SM CLR 11/M08 A3007 RMK AO1
Pressure 30.07 in
Visibility 10.0 miles
Clouds Clear
Windchill 46 °F
Dew Point 21 °F
Humidity 37%
Rainfall in
Snow Depth Not available.
7:21 AM 5:38 PM
Waxing Crescent, 11% visible
METAR KCOD 111135Z AUTO 30003KT 10SM CLR 11/M08 A3007 RMK AO1

10-Day Weather Forecast

Almanac

Astronomy

Feb. 11, 2016 Rise Set
Actual Time
Civil Twilight
Nautical Twilight
Astronomical Twilight
Moon
Length of Visible Light
Length of Day
Tomorrow will be .
, % of the Moon is Illuminated

Today's Extremes

State Highs State Lows

Community

WunderPhotos

Upload Photos

1,892,030 photos uploaded!

WunderBlog® & News

Nearby

Air Quality

  Air Quality AQ Index Pollutant
Not available.

Snow Depth

Station Depth Elevation

Earthquake Activity

City Distance Mag. Time & Date
Minimum magnitude displayed is 2.5.

Coastal Water Temperatures

Place Temperature

Stations

Nearby Weather Stations

Station Location Temp. Windchill Dew Point Humidity Wind Precip. Elev Updated Type
                   

Watches & Warnings

There are currently no watches in effect.